Henderson, Nevada Weather observations

Data are for observation ending at time listed.
 Day   Time    Ave.   Ave.  Ave.  Vector   Max.   Stn.    Total    Solar   Ave.  
  of    of     Air    Rel.  Wind   Wind    Wind   Baro.  Precip.   Rad.    Soil  
Year   Day     Temp.  Hum.  Speed  Dir.    Gust   Pres.                    Temp. 
2017   (PST)    F      %     mph   deg.    mph     mb.     in.     W/m2     F   
------------------------------------------------------------------------------
  35   19:30   57.7    47    1.8   145      3.4   938.2    0.00       0    50.7
  35   19:40   56.9    48    0.5   190      1.9   938.2    0.00       0    50.5
  35   19:50   57.2    49    2.6   151      6.5   938.2    0.00       0    50.5
  35   20:00   58.5    48    2.9   157      6.9   938.2    0.00       0    50.4
  35   20:10   58.6    48    3.1   151      7.5   938.3    0.00       0    50.3
  35   20:20   58.4    48    3.9   209      8.7   938.5    0.00       0    50.3
  35   20:30   58.5    47    4.8   198     11.0   938.6    0.00       0    50.1
  35   20:40   58.4    47    4.9   190      9.3   938.5    0.00       0    50.1
  35   20:50   57.7    49    4.3   186      8.8   938.5    0.00       0    50.0
  35   21:00   57.4    49    3.6   178      9.3   938.6    0.00       0    49.8
  35   21:10   57.0    49    5.0   188      8.8   938.8    0.00       0    49.9
  35   21:20   56.8    50    4.0   184      8.7   938.9    0.00       0    50.1
  35   21:30   56.3    50    2.5   215      6.1   938.9    0.00       0    49.9
  35   21:40   55.4    51    2.4   203      4.3   938.9    0.00       0    49.8
  35   21:50   54.7    52    2.1   222      4.5   938.9    0.00       0    49.6
  35   22:00   54.2    53    3.0   203      4.5   939.1    0.00       0    49.7
  35   22:10   55.0    50    3.0   183      5.2   939.2    0.00       0    49.6
  35   22:20   55.6    48    2.5   173      5.8   939.3    0.00       0    49.5
  35   22:30   55.5    49    2.9   175      5.8   939.4    0.00       0    49.5
  35   22:40   55.1    50    2.2   182      5.3   939.5    0.00       0    49.4
  35   22:50   54.5    51    2.9   198      6.3   939.5    0.00       0    49.4
  35   23:00   54.3    52    1.8   214      3.1   939.5    0.00       0    49.3
  35   23:10   53.4    54    0.9   243      2.0   939.5    0.00       0    49.2
  35   23:20   52.6    55    1.4   121      2.6   939.5    0.00       0    49.2
  35   23:30   52.7    54    1.3   133      2.6   939.5    0.00       0    49.0
  35   23:40   52.7    53    1.5   148      3.2   939.5    0.00       0    49.2
  35   23:50   53.3    50    2.8   179      6.9   939.5    0.00       0    49.0
  36    0:00   53.6    51    1.5   158      3.7   939.4    0.00       0    48.9
  36    0:10   53.3    52    1.5   144      3.7   939.3    0.00       0    48.8
  36    0:20   53.0    50    1.9   202      4.7   939.3    0.00       0    48.6
  36    0:30   52.2    51    1.5   254      3.9   939.3    0.00       0    48.6
  36    0:40   51.3    53    1.5   291      2.9   939.2    0.00       0    48.5
  36    0:50   51.1    54    0.7   310      3.4   939.2    0.00       0    48.4
  36    1:00   50.2    56    0.3   273      2.2   939.3    0.00       0    48.3
  36    1:10   49.5    59    1.4   245      2.3   939.4    0.00       0    48.3
  36    1:20   49.2    60    1.8   234      3.4   939.4    0.00       0    48.3
  36    1:30   49.0    62    2.2   234      3.7   939.3    0.00       0    48.1
  36    1:40   49.0    61    0.5   175      2.3   939.3    0.00       0    48.1
  36    1:50   48.1    63    0.9   232      2.0   939.4    0.00       0    47.9
  36    2:00   47.9    63    1.7   122      3.1   939.4    0.00       0    47.7
  36    2:10   48.2    62    0.8   160      2.4   939.3    0.00       0    47.7
  36    2:20   48.0    63    0.5   176      2.1   939.3    0.00       0    47.8
  36    2:30   47.4    64    1.0   217      2.2   939.3    0.00       0    47.6
  36    2:40   46.5    66    0.9   226      2.1   939.4    0.00       0    47.6
  36    2:50   45.9    68    0.2   226      1.9   939.5    0.00       0    47.4
  36    3:00   45.5    68    0.2   176      1.5   939.2    0.00       0    47.4
  36    3:10   45.7    67    0.4   157      1.5   939.0    0.00       0    47.3
  36    3:20   46.3    66    2.0   193      3.8   938.9    0.00       0    47.1
  36    3:30   46.3    66    1.7   204      3.4   938.9    0.00       0    47.1
  36    3:40   46.0    66    2.1   195      3.0   938.8    0.00       0    46.9
  36    3:50   45.8    66    1.4   190      2.8   938.9    0.00       0    46.9
  36    4:00   45.8    67    0.4   207      1.7   938.8    0.00       0    47.0
  36    4:10   46.0    66    0.6   190      2.9   938.7    0.00       0    46.4
  36    4:20   46.1    65    2.5   191      4.8   938.8    0.00       0    46.7
  36    4:30   46.2    65    1.7   169      3.9   938.7    0.00       0    46.5
  36    4:40   46.5    65    1.8   195      3.7   938.7    0.00       0    46.3
  36    4:50   45.9    66    2.2   188      3.8   938.6    0.00       0    46.3
  36    5:00   45.4    67    1.6   218      3.9   938.7    0.00       0    46.2
  36    5:10   44.8    69    1.3   195      2.9   938.7    0.00       0    46.2
  36    5:20   44.9    69    0.2   177      1.3   938.7    0.00       0    46.0
  36    5:30   45.1    69    1.6   199      3.9   938.9    0.00       0    46.0
  36    5:40   45.5    68    1.2   193      3.9   939.0    0.00       0    45.9
  36    5:50   45.0    69    0.9   205      2.1   939.0    0.00       0    45.8
  36    6:00   44.4    71    1.7   192      2.9   939.2    0.00       0    45.6
  36    6:10   44.4    71    0.9   182      2.4   939.2    0.00       0    45.7
  36    6:20   44.2    72    1.2   194      2.8   939.4    0.00       0    45.6
  36    6:30   44.7    72    1.6   192      2.9   939.4    0.00       0    45.4
  36    6:40   44.5    72    0.1   173      1.5   939.3    0.00       4    45.4
  36    6:50   44.4    73    2.1   199      3.7   939.4    0.00       9    45.5
  36    7:00   45.3    71    1.9   204      3.1   939.3    0.00      22    45.2
  36    7:10   46.0    69    2.3   201      3.6   939.4    0.00      48    45.1
  36    7:20   47.0    68    2.4   218      3.4   939.5    0.00      79    45.2
  36    7:30   47.9    66    2.2   230      3.0   939.7    0.00     118    45.1
  36    7:40   50.3    63    1.1   197      2.6   939.8    0.00     152    44.8
  36    7:50   53.0    57    0.3   225      1.4   939.9    0.00     181    45.0
  36    8:00   53.4    56    0.6   230      1.5   940.0    0.00     214    44.9
  36    8:10   55.4    51    0.6   326      1.2   940.1    0.00     249    44.9
  36    8:20   55.8    50    1.0     4      2.2   940.2    0.00     286    44.9
  36    8:30   54.6    52    1.8    88      3.7   940.2    0.00     313    44.8
  36    8:40   54.6    52    2.2   100      4.2   940.3    0.00     370    44.8
  36    8:50   54.3    52    1.9   107      3.4   940.4    0.00     373    44.8
  36    9:00   56.6    49    0.6   114      2.7   940.4    0.00     369    44.9
  36    9:10   57.6    48    0.9   117      2.6   940.4    0.00     456    44.7
  36    9:20   57.3    48    1.1   141      3.1   940.3    0.00     426    45.1
  36    9:30   57.6    47    1.3   118      2.9   940.4    0.00     491    45.1
  36    9:40   57.7    48    0.8   289      2.0   940.4    0.00     448    45.1
  36    9:50   59.3    45    0.8    38      2.3   940.4    0.00     538    45.1
  36   10:00   60.0    44    1.3    57      3.5   940.3    0.00     492    45.3
  36   10:10   59.8    44    1.4    52      3.9   940.3    0.00     542    45.5
  36   10:20   59.6    44    1.3    32      3.0   940.1    0.00     508    45.8
  36   10:30   59.2    45    2.6   329      4.6   940.1    0.00     570    45.8
  36   10:40   59.0    46    2.2   309      5.4   940.0    0.00     585    46.0
  36   10:50   59.1    45    2.6   322      5.0   939.8    0.00     598    46.3
  36   11:00   59.1    46    2.2   327      5.2   939.7    0.00     551    46.4
  36   11:10   60.3    43    1.3    14      3.8   939.5    0.00     620    46.8
  36   11:20   61.6    41    1.1     9      3.7   939.3    0.00     572    47.1
  36   11:30   60.8    42    1.5    13      3.5   939.0    0.00     655    47.4
  36   11:40   61.4    41    1.5    54      5.8   938.7    0.00     578    47.5
  36   11:50   61.3    42    1.9   330      4.0   938.5    0.00     548    47.6
  36   12:00   61.4    41    1.6     7      4.1   938.2    0.00     529    48.1
  36   12:10   61.3    42    2.3   324      4.3   937.9    0.00     503    48.4
  36   12:20   61.4    42    3.0   324      6.6   937.6    0.00     533    48.4
  36   12:30   61.2    43    3.3   327      7.9   937.4    0.00     505    48.8
  36   12:40   61.7    42    2.0   328      5.0   937.2    0.00     517    49.0
  36   12:50   62.1    41    2.7   351      6.5   936.9    0.00     608    49.0
  36   13:00   62.6    41    2.0   347      5.0   936.5    0.00     582    49.4
  36   13:10   63.4    40    2.3    37      5.6   936.3    0.00     522    49.3
  36   13:20   63.2    40    1.4   360      4.2   936.0    0.00     442    49.6
  36   13:30   62.9    40    2.8   321      5.7   935.8    0.00     416    49.9
  36   13:40   63.5    39    2.4   322      6.2   935.7    0.00     480    50.0
  36   13:50   63.4    39    3.4   310      6.2   935.6    0.00     410    50.2
  36   14:00   63.1    40    3.3   320      8.0   935.5    0.00     428    50.5
  36   14:10   63.3    39    2.3   302      5.5   935.3    0.00     287    50.6
  36   14:20   63.4    39    2.4   312      5.8   935.3    0.00     282    50.8
  36   14:30   63.3    39    2.6   308      4.9   935.2    0.00     314    51.0
  36   14:40   63.4    38    2.9   310      6.9   935.2    0.00     258    51.1
  36   14:50   63.1    39    3.4   301      6.1   935.3    0.00     183    51.2
  36   15:00   62.8    39    3.3   306      5.5   935.4    0.00     218    51.4
  36   15:10   62.8    38    3.3   331      6.5   935.4    0.00     172    51.5
  36   15:20   62.4    39    2.8   319      6.1   935.4    0.00     126    51.6
  36   15:30   62.3    39    3.5   310      6.3   935.3    0.00     168    51.9
  36   15:40   62.4    39    2.9   313      5.3   935.2    0.00     147    52.0
  36   15:50   62.3    39    2.5   315      6.0   935.2    0.00      91    52.2
  36   16:00   61.9    40    3.5   312      5.9   935.0    0.00      74    52.2
  36   16:10   61.5    40    3.1   304      6.4   935.0    0.00      73    52.2
  36   16:20   61.6    40    2.5   314      4.5   934.9    0.00      73    52.2
  36   16:30   61.6    40    1.1   344      2.7   935.0    0.00      55    52.2
  36   16:40   61.6    40    0.4   314      2.7   935.0    0.00      49    52.3
  36   16:50   61.4    40    0.5   323      2.0   935.0    0.00      35    52.4
  36   17:00   60.7    42    0.7   306      2.3   935.0    0.00      15    52.4
  36   17:10   60.2    42    0.1   157      0.9   935.0    0.00       7    52.2
  36   17:20   60.1    41    1.8   118      9.0   934.9    0.00       3    52.3
  36   17:30   62.0    32    4.7   124     10.1   934.9    0.00       0    52.4
  36   17:40   62.0    31    4.7   126      7.5   934.9    0.00       0    52.3
  36   17:50   62.1    30    4.4   126      8.2   934.8    0.00       0    52.2
  36   18:00   61.6    32    2.6   158      6.4   935.0    0.00       0    52.1
  36   18:10   61.5    32    2.9   137      5.4   934.9    0.00       0    52.1
  36   18:20   61.4    33    3.6   147      8.7   934.9    0.00       0    52.0
  36   18:30   61.3    34    3.8   155      9.9   935.0    0.00       0    52.2
  36   18:40   61.2    33    3.7   153      6.9   935.1    0.00       0    52.1
  36   18:50   61.0    34    4.0   148      8.1   935.0    0.00       0    51.9
  36   19:00   60.8    34    4.4   153      8.8   935.0    0.00       0    51.9
  36   19:10   60.6    35    4.7   151      8.9   934.9    0.00       0    51.9
  36   19:20   60.6    35    4.0   152      8.4   934.8    0.00       0    51.9

Return to Henderson, Nevada graphs page.


Western Regional Climate Center,wrcc@dri.edu